createdAt,value
2019-02-09T00:01:25.012Z,97571.50
2019-02-09T00:04:14.931Z,97567.34
2019-02-09T00:07:04.726Z,97565.06
2019-02-09T00:09:45.448Z,97565.30
2019-02-09T00:12:35.052Z,97566.61
2019-02-09T00:15:24.621Z,97574.19
2019-02-09T00:18:15.841Z,97568.08
2019-02-09T00:21:05.510Z,97569.05
2019-02-09T00:23:55.158Z,97562.44
2019-02-09T00:26:35.259Z,97562.33
2019-02-09T00:29:24.641Z,97564.02
2019-02-09T00:32:13.871Z,97514.80
2019-02-09T00:35:03.473Z,97451.23
2019-02-09T00:37:53.208Z,97560.52
2019-02-09T00:40:45.073Z,97545.61
2019-02-09T00:43:34.595Z,97552.90
2019-02-09T00:46:24.303Z,97537.54
2019-02-09T00:49:13.799Z,97530.89
2019-02-09T00:52:03.468Z,97525.83
2019-02-09T00:54:54.087Z,97517.80
2019-02-09T00:57:43.663Z,97518.05
2019-02-09T01:00:33.604Z,97513.88
2019-02-09T01:03:23.281Z,97511.91
2019-02-09T01:06:12.594Z,97513.45
2019-02-09T01:08:42.964Z,97499.20
2019-02-09T01:11:32.253Z,97493.63
2019-02-09T01:14:21.694Z,97494.23
2019-02-09T01:17:26.539Z,97490.88
2019-02-09T01:20:02.373Z,97491.25
2019-02-09T01:22:52.458Z,97492.19
2019-02-09T01:25:41.789Z,97453.73
2019-02-09T01:28:23.500Z,97490.95
2019-02-09T01:31:05.164Z,97489.72
2019-02-09T01:33:47.141Z,97487.40
2019-02-09T01:36:28.361Z,97488.18
2019-02-09T01:39:10.064Z,97474.62
2019-02-09T01:41:50.099Z,97469.31
2019-02-09T01:45:02.528Z,97461.63
2019-02-09T01:47:51.798Z,97457.20
2019-02-09T01:50:41.147Z,97458.30
2019-02-09T01:53:30.797Z,97455.87
2019-02-09T01:56:01.162Z,97445.27
2019-02-09T01:58:50.819Z,97445.45
2019-02-09T02:01:40.395Z,97442.67
2019-02-09T02:04:29.651Z,97445.70
2019-02-09T02:07:19.420Z,97431.63
2019-02-09T02:10:10.733Z,97426.16
2019-02-09T02:13:00.636Z,97415.95
2019-02-09T02:15:50.192Z,97343.44
2019-02-09T02:18:31.829Z,97407.50
2019-02-09T02:21:13.142Z,97407.05
2019-02-09T02:23:55.507Z,97408.83
2019-02-09T02:26:37.174Z,97404.45
2019-02-09T02:32:08.464Z,97387.44
2019-02-09T02:34:50.334Z,97382.48
2019-02-09T02:37:31.806Z,97386.34
2019-02-09T02:40:13.786Z,97382.84
2019-02-09T02:42:55.478Z,97369.28
2019-02-09T02:45:36.998Z,97376.91
2019-02-09T02:48:18.637Z,97380.31
2019-02-09T02:51:00.663Z,97386.80
2019-02-09T02:53:42.238Z,97397.38
2019-02-09T02:56:24.848Z,97396.16
2019-02-09T02:59:06.278Z,97397.64
2019-02-09T03:01:48.103Z,97397.97
2019-02-09T03:04:29.517Z,97357.94
2019-02-09T03:07:10.339Z,97397.56
2019-02-09T03:10:18.517Z,97401.78
2019-02-09T03:13:28.418Z,97413.48
2019-02-09T03:16:18.296Z,97410.62
2019-02-09T03:19:00.277Z,97407.86
2019-02-09T03:21:42.287Z,97409.20
2019-02-09T03:24:13.513Z,97256.77
2019-02-09T03:27:02.730Z,97422.56
2019-02-09T03:29:33.419Z,97417.91
2019-02-09T03:32:23.119Z,97418.66
2019-02-09T03:35:12.900Z,97420.75
2019-02-09T03:37:43.389Z,97423.53
2019-02-09T03:40:32.997Z,97418.73
2019-02-09T03:43:22.336Z,97433.72
2019-02-09T03:46:12.299Z,97435.08
2019-02-09T03:49:01.892Z,97428.50
2019-02-09T03:51:51.162Z,97440.27
2019-02-09T03:54:22.510Z,97453.59
2019-02-09T03:57:12.609Z,97463.94
2019-02-09T04:00:02.238Z,97466.53
2019-02-09T04:02:51.873Z,97459.47
2019-02-09T04:05:41.158Z,97470.25
2019-02-09T04:08:30.759Z,97470.25
2019-02-09T04:11:19.995Z,97477.23
2019-02-09T04:14:09.681Z,97484.66
2019-02-09T04:16:40.029Z,97497.22
2019-02-09T04:19:29.486Z,97476.67
2019-02-09T04:22:19.153Z,97463.57
2019-02-09T04:25:09.478Z,97497.41
2019-02-09T04:27:59.077Z,97485.28
2019-02-09T04:30:48.803Z,97485.68
2019-02-09T04:33:38.389Z,97500.16
2019-02-09T04:37:02.313Z,97522.91
2019-02-09T04:39:51.773Z,97499.63
2019-02-09T04:42:41.378Z,97467.81
2019-02-09T04:45:30.751Z,97476.91
2019-02-09T04:48:20.382Z,97464.16
2019-02-09T04:51:09.930Z,97489.22
2019-02-09T04:53:40.147Z,97483.45
2019-02-09T04:56:10.382Z,97490.97
2019-02-09T04:58:47.963Z,97480.75
2019-02-09T05:01:18.158Z,97489.45
2019-02-09T05:04:07.748Z,97501.83
2019-02-09T05:06:57.008Z,97503.63
2019-02-09T05:09:46.898Z,97498.07
2019-02-09T05:12:36.184Z,97502.71
2019-02-09T05:15:25.758Z,97496.20
2019-02-09T05:18:16.190Z,97507.03
2019-02-09T05:20:57.753Z,97513.81
2019-02-09T05:23:28.665Z,97523.87
2019-02-09T05:26:17.980Z,97526.36
2019-02-09T05:28:48.334Z,97519.16
2019-02-09T05:31:37.708Z,97512.94
2019-02-09T05:34:27.433Z,97496.00
2019-02-09T05:37:17.012Z,97493.68
2019-02-09T05:40:06.524Z,97490.97
2019-02-09T05:42:56.317Z,97501.66
2019-02-09T05:45:45.945Z,97491.98
2019-02-09T05:48:16.304Z,97496.91
2019-02-09T05:51:06.127Z,97502.74
2019-02-09T05:56:33.013Z,97492.34
2019-02-09T05:59:22.272Z,97501.22
2019-02-09T06:01:52.904Z,97501.05
2019-02-09T06:04:42.266Z,97498.80
2019-02-09T06:07:13.065Z,97502.83
2019-02-09T06:09:43.364Z,97521.58
2019-02-09T06:12:16.141Z,97513.83
2019-02-09T06:14:47.413Z,97529.81
2019-02-09T06:17:17.784Z,97535.20
2019-02-09T06:20:07.501Z,97527.06
2019-02-09T06:22:57.486Z,97535.25
2019-02-09T06:25:47.091Z,97529.31
2019-02-09T06:28:36.623Z,97539.19
2019-02-09T06:31:25.977Z,97546.38
2019-02-09T06:34:15.810Z,97546.09
2019-02-09T06:37:05.415Z,97556.95
2019-02-09T06:39:54.836Z,97551.17
2019-02-09T06:42:44.514Z,97550.73
2019-02-09T06:45:34.055Z,97557.57
2019-02-09T06:48:24.752Z,97562.82
2019-02-09T06:51:16.714Z,97562.37
2019-02-09T06:54:06.064Z,97566.56
2019-02-09T06:56:56.001Z,97574.30
2019-02-09T06:59:26.277Z,97581.09
2019-02-09T07:02:15.893Z,97584.75
2019-02-09T07:05:24.997Z,97587.28
2019-02-09T07:08:14.487Z,97599.55
2019-02-09T07:14:13.968Z,97602.03
2019-02-09T07:17:03.804Z,97480.41
2019-02-09T07:19:53.426Z,97614.27
2019-02-09T07:22:35.097Z,97613.38
2019-02-09T07:25:16.845Z,97624.20
2019-02-09T07:27:57.559Z,97639.39
2019-02-09T07:30:47.039Z,97642.89
2019-02-09T07:33:36.387Z,97637.06
2019-02-09T07:36:16.970Z,97651.80
2019-02-09T07:39:09.108Z,97657.11
2019-02-09T07:41:58.369Z,97660.28
2019-02-09T07:44:47.663Z,97666.22
2019-02-09T07:47:37.881Z,97674.62
2019-02-09T07:50:27.381Z,97701.66
2019-02-09T07:53:16.707Z,97705.56
2019-02-09T07:56:06.489Z,97707.94
2019-02-09T08:01:48.789Z,97718.62
2019-02-09T08:04:48.602Z,97725.25
2019-02-09T08:07:18.983Z,97732.86
2019-02-09T08:10:10.221Z,97738.98
2019-02-09T08:13:00.239Z,97752.28
2019-02-09T08:15:31.477Z,97767.39
2019-02-09T08:18:21.203Z,97769.39
2019-02-09T08:21:03.101Z,97767.69
2019-02-09T08:23:44.665Z,97763.89
2019-02-09T08:29:07.578Z,97765.59
2019-02-09T08:31:38.158Z,97768.89
2019-02-09T08:34:27.658Z,97770.69
2019-02-09T08:37:07.714Z,97778.78
2019-02-09T08:43:07.935Z,97775.24
2019-02-09T08:45:57.574Z,97778.23
2019-02-09T08:48:46.912Z,97774.56
2019-02-09T08:51:21.661Z,97774.27
2019-02-09T08:54:12.059Z,97772.05
2019-02-09T08:56:42.245Z,97768.77
2019-02-09T08:59:31.862Z,97773.24
2019-02-09T09:02:06.676Z,97778.41
2019-02-09T09:04:36.991Z,97764.19
2019-02-09T09:07:37.571Z,97761.89
2019-02-09T09:10:24.940Z,97764.87
2019-02-09T09:13:14.641Z,97757.80
2019-02-09T09:15:55.119Z,97756.38
2019-02-09T09:21:20.404Z,97776.96
2019-02-09T09:23:55.769Z,97787.55
2019-02-09T09:26:44.622Z,97793.63
2019-02-09T09:29:15.607Z,97763.75
2019-02-09T09:31:46.517Z,97789.09
2019-02-09T09:34:44.558Z,97745.17
2019-02-09T09:40:13.477Z,97787.60
2019-02-09T09:42:46.500Z,97785.72
2019-02-09T09:45:19.655Z,97798.38
2019-02-09T09:47:50.337Z,97805.12
2019-02-09T09:50:22.117Z,97807.22
2019-02-09T09:52:52.748Z,97794.88
2019-02-09T09:55:42.281Z,97811.44
2019-02-09T09:58:33.634Z,97700.55
2019-02-09T10:01:03.934Z,97825.77
2019-02-09T10:03:34.172Z,97825.38
2019-02-09T10:06:23.642Z,97836.23
2019-02-09T10:08:54.156Z,97845.80
2019-02-09T10:11:24.424Z,97862.04
2019-02-09T10:13:54.629Z,97871.19
2019-02-09T10:16:44.134Z,97876.59
2019-02-09T10:19:14.452Z,97852.53
2019-02-09T10:22:03.861Z,97860.10
2019-02-09T10:24:53.704Z,97864.45
2019-02-09T10:27:35.425Z,97873.69
2019-02-09T10:33:00.417Z,97795.09
2019-02-09T10:35:58.159Z,97859.31
2019-02-09T10:38:49.752Z,97851.39
2019-02-09T10:41:20.474Z,97864.54
2019-02-09T10:44:09.853Z,97864.86
2019-02-09T10:46:59.442Z,97866.42
2019-02-09T10:49:48.942Z,97874.06
2019-02-09T10:52:22.198Z,97878.18
2019-02-09T10:55:11.761Z,97881.98
2019-02-09T10:57:48.070Z,97885.13
2019-02-09T11:00:42.277Z,97881.48
2019-02-09T11:03:13.115Z,97884.89
2019-02-09T11:05:44.771Z,97892.58
2019-02-09T11:08:34.890Z,97892.31
2019-02-09T11:11:24.102Z,97876.38
2019-02-09T11:14:13.733Z,97878.06
2019-02-09T11:17:03.488Z,97872.44
2019-02-09T11:19:53.138Z,97868.69
2019-02-09T11:22:34.589Z,97852.89
2019-02-09T11:27:59.321Z,97801.84
2019-02-09T11:30:41.535Z,97846.01
2019-02-09T11:33:22.732Z,97850.83
2019-02-09T11:38:45.816Z,97842.09
2019-02-09T11:41:20.036Z,97847.80
2019-02-09T11:43:50.651Z,97863.83
2019-02-09T11:46:21.120Z,97854.02
2019-02-09T11:48:51.482Z,97851.61
2019-02-09T11:51:21.778Z,97870.72
2019-02-09T11:54:13.449Z,97876.38
2019-02-09T11:56:45.455Z,97878.20
2019-02-09T11:59:38.393Z,97893.89
2019-02-09T12:02:27.745Z,97886.88
2019-02-09T12:05:17.267Z,97882.03
2019-02-09T12:07:51.606Z,97873.03
2019-02-09T12:10:40.942Z,97870.41
2019-02-09T12:13:11.254Z,97878.97
2019-02-09T12:16:00.557Z,97866.21
2019-02-09T12:18:50.282Z,97862.88
2019-02-09T12:21:39.865Z,97853.50
2019-02-09T12:24:21.272Z,97847.20
2019-02-09T12:27:02.868Z,97857.66
2019-02-09T12:29:33.509Z,97842.84
2019-02-09T12:32:23.218Z,97849.88
2019-02-09T12:35:13.533Z,97842.38
2019-02-09T12:37:43.814Z,97838.64
2019-02-09T12:40:21.228Z,97843.17
2019-02-09T12:42:51.855Z,97831.95
2019-02-09T12:45:23.096Z,97833.19
2019-02-09T12:48:12.682Z,97836.83
2019-02-09T12:50:43.616Z,97788.23
2019-02-09T12:53:32.992Z,97834.45
2019-02-09T12:56:03.473Z,97842.61
2019-02-09T12:58:34.616Z,97844.77
2019-02-09T13:01:24.353Z,97814.83
2019-02-09T13:04:13.849Z,97845.91
2019-02-09T13:07:07.581Z,97834.34
2019-02-09T13:09:57.227Z,97836.06
2019-02-09T13:12:55.799Z,97834.67
2019-02-09T13:15:47.226Z,97854.94
2019-02-09T13:18:38.486Z,97835.86
2019-02-09T13:21:10.329Z,97853.58
2019-02-09T13:23:41.616Z,97830.41
2019-02-09T13:26:12.676Z,97831.00
2019-02-09T13:28:43.290Z,97839.78
2019-02-09T13:31:17.671Z,97838.27
2019-02-09T13:34:08.540Z,97822.22
2019-02-09T13:36:57.939Z,97839.23
2019-02-09T13:39:47.567Z,97830.00
2019-02-09T13:42:36.886Z,97729.94
2019-02-09T13:45:15.356Z,97836.55
2019-02-09T13:48:06.264Z,97839.28
2019-02-09T13:50:55.529Z,97850.35
2019-02-09T13:53:26.052Z,97844.73
2019-02-09T13:55:56.490Z,97844.17
2019-02-09T13:58:28.044Z,97844.50
2019-02-09T14:01:20.629Z,97851.30
2019-02-09T14:07:06.143Z,97860.03
2019-02-09T14:09:45.648Z,97855.48
2019-02-09T14:12:35.243Z,97867.16
2019-02-09T14:15:27.852Z,97872.98
2019-02-09T14:18:19.490Z,97885.20
2019-02-09T14:21:09.016Z,97874.34
2019-02-09T14:24:02.481Z,97881.39
2019-02-09T14:26:32.973Z,97887.92
2019-02-09T14:29:03.902Z,97893.25
2019-02-09T14:31:48.484Z,97891.81
2019-02-09T14:34:29.505Z,97886.34
2019-02-09T14:36:59.856Z,97896.31
2019-02-09T14:39:30.379Z,97892.80
2019-02-09T14:42:00.709Z,97892.03
2019-02-09T14:44:32.089Z,97895.06
2019-02-09T14:47:05.490Z,97891.53
2019-02-09T14:52:17.473Z,97899.76
2019-02-09T14:54:48.000Z,97887.85
2019-02-09T14:57:38.658Z,97886.50
2019-02-09T15:00:29.912Z,97753.66
2019-02-09T15:03:27.237Z,97888.07
2019-02-09T15:05:54.656Z,97878.66
2019-02-09T15:08:47.012Z,97880.34
2019-02-09T15:11:17.482Z,97877.20
2019-02-09T15:14:07.013Z,97877.16
2019-02-09T15:19:53.666Z,97880.36
2019-02-09T15:22:24.221Z,97877.09
2019-02-09T15:24:56.814Z,97876.36
2019-02-09T15:27:38.785Z,97885.62
2019-02-09T15:30:20.985Z,97894.20
2019-02-09T15:32:52.131Z,97896.67
2019-02-09T15:35:41.714Z,97896.40
2019-02-09T15:38:31.113Z,97892.55
2019-02-09T15:41:20.726Z,97897.52
2019-02-09T15:44:10.071Z,97889.22
2019-02-09T15:46:40.724Z,97887.91
2019-02-09T15:49:30.468Z,97894.63
2019-02-09T15:52:19.970Z,97879.88
2019-02-09T15:55:10.360Z,97889.79
2019-02-09T15:57:59.681Z,97891.40
2019-02-09T16:01:09.239Z,97884.95
2019-02-09T16:03:39.534Z,97883.64
2019-02-09T16:06:29.087Z,97882.34
2019-02-09T16:08:59.404Z,97893.90
2019-02-09T16:11:29.682Z,97898.50
2019-02-09T16:14:01.828Z,97900.81
2019-02-09T16:16:32.061Z,97897.47
2019-02-09T16:19:13.429Z,97904.55
2019-02-09T16:21:44.235Z,97901.77
2019-02-09T16:24:34.129Z,97902.77
2019-02-09T16:27:23.487Z,97899.51
2019-02-09T16:29:53.793Z,97901.41
2019-02-09T16:32:24.343Z,97914.19
2019-02-09T16:35:15.631Z,97910.92
2019-02-09T16:38:05.377Z,97905.87
2019-02-09T16:40:47.174Z,97906.52
2019-02-09T16:43:37.868Z,97900.38
2019-02-09T16:46:28.789Z,97904.02
2019-02-09T16:49:18.410Z,97903.28
2019-02-09T16:52:07.715Z,97908.78
2019-02-09T16:54:57.500Z,97909.05
2019-02-09T16:57:27.874Z,97902.14
2019-02-09T17:00:21.400Z,97907.09
2019-02-09T17:03:11.238Z,97912.98
2019-02-09T17:06:01.375Z,97916.67
2019-02-09T17:08:51.466Z,97917.97
2019-02-09T17:11:41.154Z,97912.86
2019-02-09T17:17:30.361Z,97920.40
2019-02-09T17:20:20.793Z,97924.03
2019-02-09T17:22:53.654Z,97921.50
2019-02-09T17:25:27.371Z,97929.20
2019-02-09T17:28:19.830Z,97922.25
2019-02-09T17:30:53.676Z,97925.42
2019-02-09T17:33:27.086Z,97927.28
2019-02-09T17:35:58.692Z,97930.56
2019-02-09T17:38:30.530Z,97939.77
2019-02-09T17:41:03.707Z,97934.58
2019-02-09T17:43:37.332Z,97928.82
2019-02-09T17:46:16.332Z,97936.98
2019-02-09T17:49:10.267Z,97940.69
2019-02-09T17:51:44.559Z,97933.61
2019-02-09T17:54:15.793Z,97942.59
2019-02-09T17:57:06.428Z,97943.30
2019-02-09T17:59:53.852Z,97944.07
2019-02-09T18:02:31.441Z,97858.72
2019-02-09T18:05:22.187Z,97946.39
2019-02-09T18:08:12.508Z,97949.19
2019-02-09T18:10:44.304Z,97948.70
2019-02-09T18:13:15.809Z,97950.20
2019-02-09T18:15:47.364Z,97955.70
2019-02-09T18:18:18.719Z,97947.88
2019-02-09T18:20:50.457Z,97945.58
2019-02-09T18:23:22.598Z,97954.61
2019-02-09T18:25:53.651Z,97948.83
2019-02-09T18:28:43.477Z,97958.01
2019-02-09T18:31:33.280Z,97957.33
2019-02-09T18:34:23.517Z,97957.89
2019-02-09T18:40:19.078Z,97948.18
2019-02-09T18:43:26.927Z,97947.80
2019-02-09T18:46:17.405Z,97939.24
2019-02-09T18:49:08.383Z,97955.13
2019-02-09T18:51:41.355Z,97949.27
2019-02-09T18:54:32.160Z,97952.39
2019-02-09T18:57:22.786Z,97950.08
2019-02-09T19:00:13.886Z,97948.68
2019-02-09T19:03:04.000Z,97946.49
2019-02-09T19:05:55.981Z,97943.36
2019-02-09T19:08:47.190Z,97941.34
2019-02-09T19:11:56.536Z,97949.07
2019-02-09T19:14:30.508Z,97937.84
2019-02-09T19:17:20.877Z,97945.84
2019-02-09T19:20:12.795Z,97935.92
2019-02-09T19:22:44.967Z,97929.56
2019-02-09T19:25:35.411Z,97931.41
2019-02-09T19:28:25.870Z,97925.69
2019-02-09T19:31:17.396Z,97919.03
2019-02-09T19:34:21.654Z,97926.83
2019-02-09T19:36:51.664Z,97926.90
2019-02-09T19:39:24.295Z,97921.95
2019-02-09T19:45:30.771Z,97890.55
2019-02-09T19:51:30.737Z,97901.61
2019-02-09T19:54:04.328Z,97894.27
2019-02-09T19:56:54.686Z,97893.66
2019-02-09T20:02:38.287Z,97898.61
2019-02-09T20:05:46.901Z,97903.91
2019-02-09T20:08:37.471Z,97903.81
2019-02-09T20:11:30.390Z,97901.20
2019-02-09T20:14:22.336Z,97900.09
2019-02-09T20:17:13.888Z,97900.54
2019-02-09T20:19:55.447Z,97909.38
2019-02-09T20:22:37.799Z,97900.30
2019-02-09T20:25:20.947Z,97904.66
2019-02-09T20:28:05.559Z,97901.69
2019-02-09T20:33:20.816Z,97915.84
2019-02-09T20:35:54.549Z,97908.84
2019-02-09T20:38:26.677Z,97903.50
2019-02-09T20:41:20.005Z,97898.23
2019-02-09T20:44:12.639Z,97900.33
2019-02-09T20:47:03.331Z,97905.03
2019-02-09T20:49:55.723Z,97903.95
2019-02-09T20:52:45.948Z,97898.23
2019-02-09T20:55:38.636Z,97898.10
2019-02-09T20:58:12.522Z,97898.69
2019-02-09T21:00:44.127Z,97891.53
2019-02-09T21:03:16.624Z,97880.98
2019-02-09T21:06:07.236Z,97880.27
2019-02-09T21:08:38.609Z,97889.87
2019-02-09T21:11:15.203Z,97883.66
2019-02-09T21:13:47.642Z,97885.00
2019-02-09T21:16:38.017Z,97886.11
2019-02-09T21:19:32.275Z,97887.46
2019-02-09T21:22:04.634Z,97884.59
2019-02-09T21:24:54.953Z,97885.27
2019-02-09T21:27:31.779Z,97879.95
2019-02-09T21:30:22.315Z,97883.25
2019-02-09T21:32:58.127Z,97884.42
2019-02-09T21:35:48.616Z,97890.31
2019-02-09T21:38:21.165Z,97734.11
2019-02-09T21:40:55.127Z,97884.34
2019-02-09T21:43:28.754Z,97882.09
2019-02-09T21:46:19.483Z,97880.48
2019-02-09T21:48:54.414Z,97886.03
2019-02-09T21:51:25.963Z,97885.72
2019-02-09T21:54:18.212Z,97878.73
2019-02-09T21:57:27.189Z,97876.64
2019-02-09T21:59:58.895Z,97867.02
2019-02-09T22:02:51.255Z,97858.63
2019-02-09T22:05:42.025Z,97863.59
2019-02-09T22:08:32.380Z,97858.13
2019-02-09T22:11:22.849Z,97859.20
2019-02-09T22:13:55.511Z,97854.42
2019-02-09T22:16:46.205Z,97864.79
2019-02-09T22:19:38.510Z,97701.64
2019-02-09T22:22:22.374Z,97683.78
2019-02-09T22:25:03.835Z,97848.92
2019-02-09T22:27:54.168Z,97850.48
2019-02-09T22:30:28.380Z,97847.09
2019-02-09T22:33:24.805Z,97838.64
2019-02-09T22:36:00.043Z,97840.06
2019-02-09T22:38:49.501Z,97841.81
2019-02-09T22:41:21.566Z,97708.30
2019-02-09T22:43:53.326Z,97838.95
2019-02-09T22:46:44.231Z,97832.61
2019-02-09T22:49:16.197Z,97832.03
2019-02-09T22:52:07.714Z,97822.82
2019-02-09T22:54:57.905Z,97810.98
2019-02-09T22:58:10.747Z,97801.36
2019-02-09T23:01:09.268Z,97815.58
